Cold Bay, AK

10:17 AM AKDT on September 18, 2014 (GMT -0800)
False Pass | Change Station
CLOSE
Current Station
Airport
Location: False Pass,
Elevation: 20 ft
Nearby Weather Stations

Elev 20 ft 54.85 °N, 163.41 °W | Updated 16 minutes ago

Overcast
Overcast
50 °F
Feels Like 50 °F
N
7
Wind Variable Wind from Variable
Gusts 18 mph

Today
High -- | Low -- °F
--% Chance of Precip.
Yesterday
High -- | Low -- °F
Precip. -- in
8:29 AM 8:59 PM
Waning Crescent, 25% visible
Pressure 29.65 in
Visibility 10.0 miles
Clouds Mostly Cloudy 2300 ft
Overcast 3400 ft
Dew Point 42 °F
Humidity 74%
Rainfall 0.02 in
Snow Depth 2 in , 0 in , 3 in
UV 0 out of 12
Pollen Not available.
Air Quality Not available.
Flu Activity Not available.
METAR PAKF 181801Z AUTO VRB06G16KT 10SM BKN023 OVC034 10/06 A2938 RMK AO2 RAB1703E1723 SLP041 P0000 60001 T01000056 10111 20094 52005 $

More Conditions Fewer Conditions

Pressure 29.65 in
Visibility 10.0 miles
Clouds Mostly Cloudy 2300 ft
Overcast 3400 ft
Dew Point 42 °F
Humidity 74%
Rainfall 0.02 in
Snow Depth 2 in , 0 in , 3 in
UV 0 out of 12
Pollen Not available.
Air Quality Not available.
Flu Activity Not available.
METAR PAKF 181801Z AUTO VRB06G16KT 10SM BKN023 OVC034 10/06 A2938 RMK AO2 RAB1703E1723 SLP041 P0000 60001 T01000056 10111 20094 52005 $

More Conditions Fewer Conditions

10-Day Weather Forecast

Almanac

Astronomy

Sep. 18, 2014 Rise Set
Actual Time 8:29 AM AKDT 8:59 PM AKDT
Civil Twilight 7:52 AM AKDT 9:35 PM AKDT
Nautical Twilight 7:08 AM AKDT 10:19 PM AKDT
Astronomical Twilight 6:21 AM AKDT 11:06 PM AKDT
Moon 2:53 AM AKDT 6:33 PM AKDT
Length of Visible Light 13h 43m
Length of Day
12h 30m
Tomorrow will be 4m 28s shorter.
Waning Crescent, 25% of the Moon is Illuminated
Today
Waning Crescent
Sep 24
New
Oct 1
First Quarter
Oct 8
Full
Oct 15
Last Quarter

Today's Extremes

State Highs State Lows

Community

WunderPhotos

Upload Photos

1,754,410 photos uploaded!

Nearby

Snow Depth

Station Depth Elevation
Atigun Pass 2 in 4800 ft
Little Chena Ridge 0 in 2000 ft
Grandview 3 in 1100 ft
Nuka Glacier 67 in 1250 ft
Upper Tsaina River 0 in 1750 ft

Earthquake Activity

City Distance Mag. Time & Date
No recent earthquake activity has been reported nearby.
Minimum magnitude displayed is 2.5.

Coastal Water Temperatures

Place Temperature
No Stations Reporting

Nearby Weather Stations